עמוד ראשי
METAR-TAF:

METAR-TAF

שדות תעופה :

Platinum, אלסקה, ארצות הברית

קו רוחב: 59-01N, קו אורך: 161-49W, גובה: 3מטר

תצפית מזג אוויר נוכחית

הדו"ח נערך לפני 38דקות, בשעה 02:56 UTC
רוח 18קשר מכיוון צפון-מערב
טמפרטורת 13 צלסיוס
לחות 82%
לחץ 1016 hPa
ראות: 16.1קילומטר
שמיים נקיים

METAR: PAPM 230256Z AUTO 31018KT 10SM CLR 13/10 A2999 RMK AO2 SLP158 T01280100 56010

זמן: 19:34 (03:34 UTC)


TAF: חסר

תצפיות ותחזיות מזג אוויר לגבי יותר מ- 4,000 שדות תעופה ברחבי העולם. דוחות METAR ו- TAF.

התחנות הזמינות מסומנות בנקודות צהובות ואדומות על גבי המפה.

העבר את העכבר לנקודה הצבעונית על מנת לראות את שם התחנה.

לאחר מכן, לחץ כדי לראות את תוכן ואת תחזיות מזג האוויר.

כדי לשנות את המפה: לחץ על הכפתורים הירוקים עם הפלוס השחור כדי להתקרב; על הכפתור הירוק עם המקף כדי להתרחק; או בחיצים הירוקים למפות סמוכות.


METAR-TAF: